Main page
METAR-TAF:

METAR-TAF

Airports :

Isle of Man,

Isle of Man Airport

latitude: 54-05N, longitude: 004-38W, elevation: 17 m

Current weather observation

The report was made 34 minutes ago, at 18:20 UTC
Wind 10 kt from the East/Northeast
Temperature 12°C
Humidity 38%
Pressure 1024 hPa
Visibility 10 km or more
no clouds below 1500 m and no cumulonimbus

METAR: EGNS 261820Z 06010KT CAVOK 12/M02 Q1024 NOSIG

Time: 19:54 (18:54 UTC)

Forecast

The report was made 1 hour and 54 minutes ago, at 17:00 UTC
Forecast valid from 26 at 18 UTC to 26 at 21 UTC
Wind 12 kt from the East/Northeast
Visibility 10 km or more
no clouds below 1500 m and no cumulonimbus

TAF: EGNS 261700Z 2618/2621 07012KT CAVOK

Weather observations and forecasts of more than 4000 airports (METAR and TAF reports).

The available stations are represented by yellow and red dots on the map.

Hover mouse over dot to see the name of the station.

Then click to see weather observations and forecasts.

To change the map : click on the green buttons with a black cross to zoom in, on the green button with a dash to zoom out, or on the green arrows for adjacent maps.


METAR-TAF: